Time;durP1;ratioP1;P1;durP2;ratioP2;P2;SDS_P1;SDS_P2;PMS_P1;PMS_P2;Temp;Humidity;BMP_temperature;BMP_pressure;BME280_temperature;BME280_humidity;BME280_pressure;Samples;Min_cycle;Max_cycle;Signal;HPM_P1;HPM_P2
2023/04/13 00:00:32;;;;;;;0.63;0.32;;;;;;;9.78;95.09;98779.94;6159767;23;20024;-88
2023/04/13 00:02:59;;;;;;;0.03;0.03;;;;;;;9.57;96.75;98764.22;6158522;23;20384;-88
2023/04/13 00:05:25;;;;;;;1.02;0.40;;;;;;;9.76;97.59;98776.84;6134850;23;20007;-87
2023/04/13 00:07:50;;;;;;;0.40;0.40;;;;;;;9.65;97.54;98765.47;6160176;23;20095;-89
2023/04/13 00:10:17;;;;;;;1.25;0.22;;;;;;;9.73;97.51;98775.78;6160027;23;20051;-88
2023/04/13 00:12:46;;;;;;;0.28;0.28;;;;;;;9.68;98.52;98770.84;6159920;23;20008;-87
2023/04/13 00:15:14;;;;;;;0.50;0.50;;;;;;;9.67;100.00;98777.59;6133775;23;20056;-88
2023/04/13 00:17:41;;;;;;;1.25;0.93;;;;;;;9.65;100.00;98773.78;6184875;23;20054;-88
2023/04/13 00:20:11;;;;;;;0.45;0.45;;;;;;;9.66;100.00;98778.09;6134313;23;20040;-88
2023/04/13 00:22:37;;;;;;;0.30;0.30;;;;;;;9.60;100.00;98763.31;6158792;23;20012;-88
2023/04/13 00:25:04;;;;;;;0.45;0.45;;;;;;;9.61;100.00;98767.63;6159621;23;20053;-88
2023/04/13 00:27:29;;;;;;;0.13;0.13;;;;;;;9.56;98.69;98759.91;6134692;23;20122;-88
2023/04/13 00:29:58;;;;;;;3.03;0.75;;;;;;;9.70;98.48;98779.47;6159722;23;20031;-89
2023/04/13 00:32:24;;;;;;;0.47;0.47;;;;;;;9.69;97.96;98766.09;6158977;23;20412;-88
2023/04/13 00:34:51;;;;;;;0.30;0.22;;;;;;;9.74;94.13;98776.56;6135148;23;20012;-88
2023/04/13 00:37:18;;;;;;;1.20;0.25;;;;;;;9.73;92.04;98772.22;6133275;23;20021;-88
2023/04/13 00:39:45;;;;;;;1.17;0.98;;;;;;;9.71;91.46;98764.38;6135389;23;20099;-88
2023/04/13 00:42:11;;;;;;;0.00;0.00;;;;;;;9.51;90.96;98739.16;6184158;23;20408;-88
2023/04/13 00:44:37;;;;;;;0.17;0.17;;;;;;;9.75;89.82;98776.06;6158376;23;20287;-88
2023/04/13 00:47:05;;;;;;;0.60;0.47;;;;;;;9.76;90.22;98776.84;6159240;23;20028;-88
2023/04/13 00:49:32;;;;;;;1.55;0.90;;;;;;;9.49;88.40;98736.09;6184137;23;20020;-89
2023/04/13 00:52:04;;;;;;;0.00;0.00;;;;;;;9.76;87.95;98777.63;6159599;23;20017;-88
2023/04/13 00:54:31;;;;;;;0.40;0.38;;;;;;;9.77;87.73;98770.84;6159745;23;20036;-89
2023/04/13 00:56:58;;;;;;;0.43;0.43;;;;;;;9.81;87.67;98773.47;6135563;23;20104;-88
2023/04/13 00:59:26;;;;;;;0.20;0.20;;;;;;;9.84;87.76;98773.31;6159103;23;20461;-88
2023/04/13 08:13:37;;;;;;;1.25;0.80;;;;;;;8.14;100.00;98894.59;6126952;23;20101;-96
2023/04/13 08:16:04;;;;;;;0.50;0.50;;;;;;;7.89;100.00;98846.53;6049798;23;20105;-95
2023/04/13 08:18:31;;;;;;;0.50;0.50;;;;;;;7.96;100.00;98851.84;6021385;23;20030;-95
2023/04/13 08:20:57;;;;;;;0.57;0.57;;;;;;;8.09;100.00;98871.09;6021830;23;20034;-96
2023/04/13 08:23:26;;;;;;;0.77;0.77;;;;;;;8.29;100.00;98879.13;6021055;23;20614;-94
2023/04/13 08:25:52;;;;;;;0.10;0.10;;;;;;;8.26;100.00;98900.09;6019995;23;20019;-96
2023/04/13 08:28:18;;;;;;;1.98;1.88;;;;;;;8.24;100.00;98908.06;6019538;23;20146;-96
2023/04/13 08:30:44;;;;;;;0.45;0.45;;;;;;;8.25;100.00;98895.03;6019697;23;20077;-96
2023/04/13 08:33:11;;;;;;;0.10;0.10;;;;;;;8.39;100.00;98905.59;6020031;23;20041;-95
2023/04/13 08:35:38;;;;;;;0.40;0.40;;;;;;;8.32;100.00;98890.03;6043465;23;20037;-96
2023/04/13 08:38:06;;;;;;;1.55;1.15;;;;;;;8.14;100.00;98867.00;6017920;23;20030;-93
2023/04/13 08:40:36;;;;;;;0.43;0.43;;;;;;;8.34;100.00;98895.88;6039335;23;20074;-92
2023/04/13 08:43:02;;;;;;;0.22;0.22;;;;;;;8.62;100.00;98918.16;6040622;23;20026;-92
2023/04/13 08:45:31;;;;;;;0.85;0.85;;;;;;;8.29;100.00;98870.84;5994860;23;20031;-91
2023/04/13 08:47:57;;;;;;;0.20;0.20;;;;;;;8.49;100.00;98889.84;6016798;23;20043;-92
2023/04/13 08:50:25;;;;;;;0.50;0.50;;;;;;;8.71;100.00;98915.47;6016801;23;20077;-93
2023/04/13 08:52:53;;;;;;;1.33;1.25;;;;;;;8.76;100.00;98920.44;6017715;23;20034;-90
2023/04/13 08:55:21;;;;;;;0.70;0.70;;;;;;;8.77;100.00;98919.22;6017526;23;20019;-92
2023/04/13 08:57:49;;;;;;;1.75;0.70;;;;;;;8.56;100.00;98886.81;6018010;23;20011;-93
2023/04/13 09:00:17;;;;;;;0.30;0.30;;;;;;;8.85;100.00;98926.78;5993388;23;20031;-92
2023/04/13 09:02:47;;;;;;;0.90;0.90;;;;;;;8.85;100.00;98926.03;6059487;23;20022;-91
2023/04/13 09:05:14;;;;;;;0.10;0.10;;;;;;;8.62;100.00;98868.41;6069775;23;20089;-91
2023/04/13 09:07:55;;;;;;;0.57;0.50;;;;;;;8.66;100.00;98866.28;6070186;23;20022;-92
2023/04/13 09:10:24;;;;;;;0.68;0.60;;;;;;;8.59;100.00;98845.22;6093798;23;20018;-92
2023/04/13 09:12:50;;;;;;;1.20;0.88;;;;;;;8.75;100.00;98860.81;6069476;23;20017;-93
2023/04/13 09:15:16;;;;;;;0.47;0.35;;;;;;;8.76;100.00;98856.84;6083033;23;20262;-93
2023/04/13 09:18:11;;;;;;;0.77;0.75;;;;;;;8.73;100.00;98824.56;6092774;23;20447;-95
2023/04/13 09:20:58;;;;;;;0.10;0.10;;;;;;;9.06;100.00;98875.41;6048076;23;20093;-93
2023/04/13 09:23:24;;;;;;;1.75;1.65;;;;;;;9.03;100.00;98876.31;6045325;23;20018;-93
2023/04/13 09:26:03;;;;;;;0.30;0.30;;;;;;;9.16;100.00;98879.75;6044307;23;20435;-93
2023/04/13 09:28:29;;;;;;;3.80;1.50;;;;;;;9.01;100.00;98867.72;6044872;23;20097;-93
2023/04/13 09:31:02;;;;;;;1.65;1.10;;;;;;;9.05;100.00;98893.25;6044094;23;20053;-92
2023/04/13 09:33:33;;;;;;;0.93;0.70;;;;;;;9.04;100.00;98894.47;6069289;23;20014;-93
2023/04/13 09:36:08;;;;;;;0.90;0.90;;;;;;;8.88;100.00;98876.09;6068876;23;20026;-92
2023/04/13 09:38:34;;;;;;;0.20;0.20;;;;;;;9.10;100.00;98889.88;6045247;23;20025;-93
2023/04/13 09:41:00;;;;;;;1.23;0.98;;;;;;;9.02;100.00;98880.31;6068944;23;20015;-95
2023/04/13 09:43:36;;;;;;;0.43;0.43;;;;;;;8.97;100.00;98856.03;6070480;23;20010;-96
2023/04/13 09:46:03;;;;;;;1.00;1.00;;;;;;;8.96;100.00;98856.47;6046170;23;20029;-96
2023/04/13 09:48:30;;;;;;;0.20;0.20;;;;;;;9.08;100.00;98856.38;6047429;23;20074;-95
2023/04/13 09:51:00;;;;;;;0.43;0.43;;;;;;;9.27;100.00;98863.50;6047539;23;20061;-96
2023/04/13 09:53:28;;;;;;;0.38;0.38;;;;;;;9.40;100.00;98868.16;6023332;23;20851;-96
2023/04/13 09:55:59;;;;;;;0.55;0.52;;;;;;;9.37;100.00;98847.69;6046991;23;20023;-95
2023/04/13 09:58:25;;;;;;;0.43;0.43;;;;;;;9.77;100.00;98872.53;6046387;23;20014;-95
2023/04/13 10:00:52;;;;;;;0.63;0.63;;;;;;;9.74;100.00;98840.25;6068848;23;20010;-96
2023/04/13 10:03:20;;;;;;;3.08;1.55;;;;;;;10.14;100.00;98889.97;6069597;23;20026;-95
2023/04/13 10:05:46;;;;;;;0.17;0.17;;;;;;;9.89;100.00;98841.16;6045614;23;20049;-95
2023/04/13 10:08:12;;;;;;;0.68;0.68;;;;;;;10.09;100.00;98885.81;6069799;23;20022;-95
2023/04/13 10:10:40;;;;;;;1.55;0.52;;;;;;;10.13;100.00;98893.97;6046987;23;20018;-96
2023/04/13 10:13:12;;;;;;;0.35;0.35;;;;;;;9.83;100.00;98854.06;6045456;23;20048;-95
2023/04/13 10:15:43;;;;;;;0.25;0.20;;;;;;;10.11;100.00;98890.91;6063181;23;20439;-95
2023/04/13 10:18:21;;;;;;;0.93;0.90;;;;;;;10.19;100.00;98894.94;6092481;23;20018;-95
2023/04/13 10:20:48;;;;;;;0.30;0.30;;;;;;;10.18;100.00;98874.75;6093559;23;20076;-95
2023/04/13 10:23:14;;;;;;;0.47;0.47;;;;;;;10.23;100.00;98882.44;6047315;23;20081;-96
2023/04/13 10:25:59;;;;;;;0.28;0.28;;;;;;;9.82;100.00;98838.72;6047300;23;20007;-95
2023/04/13 10:28:26;;;;;;;0.25;0.25;;;;;;;9.74;100.00;98845.78;6046215;23;20073;-95
2023/04/13 10:30:52;;;;;;;0.20;0.20;;;;;;;9.52;100.00;98840.34;6021685;23;20390;-95
2023/04/13 10:33:19;;;;;;;0.25;0.25;;;;;;;9.57;100.00;98855.59;6021214;23;20006;-96
2023/04/13 10:35:56;;;;;;;0.50;0.43;;;;;;;9.66;100.00;98866.69;6045393;23;20101;-95
2023/04/13 10:38:22;;;;;;;0.15;0.15;;;;;;;9.52;100.00;98861.72;6045884;23;20019;-95
2023/04/13 10:40:48;;;;;;;0.20;0.20;;;;;;;9.52;100.00;98861.72;6022293;23;20502;-96
2023/04/13 10:43:30;;;;;;;1.00;0.98;;;;;;;9.42;100.00;98835.25;6069065;23;20061;-96
2023/04/13 10:46:11;;;;;;;1.35;0.98;;;;;;;9.58;100.00;98860.69;6021222;23;20026;-95
2023/04/13 10:48:37;;;;;;;0.10;0.10;;;;;;;9.52;100.00;98836.81;6045698;23;20041;-94
2023/04/13 10:51:03;;;;;;;0.43;0.38;;;;;;;9.67;100.00;98846.06;6045827;23;20033;-95
2023/04/13 10:53:34;;;;;;;0.85;0.85;;;;;;;9.83;100.00;98865.16;6046031;23;20018;-96
2023/04/13 10:56:00;;;;;;;0.30;0.30;;;;;;;9.61;100.00;98825.75;6022758;23;20074;-96
2023/04/13 10:58:28;;;;;;;0.00;0.00;;;;;;;9.71;100.00;98864.06;6046656;23;20407;-96
2023/04/13 11:00:57;;;;;;;0.30;0.30;;;;;;;9.66;100.00;98858.38;6046017;23;20014;-94
2023/04/13 11:03:27;;;;;;;0.30;0.30;;;;;;;9.54;100.00;98853.75;6074096;23;20030;-96
2023/04/13 11:05:57;;;;;;;0.00;0.00;;;;;;;9.30;100.00;98817.56;6052315;23;20018;-96
2023/04/13 11:08:23;;;;;;;0.20;0.20;;;;;;;9.25;100.00;98820.91;6049242;23;20014;-96
2023/04/13 11:10:58;;;;;;;0.32;0.32;;;;;;;9.34;100.00;98841.06;6047066;23;20041;-96
2023/04/13 11:13:27;;;;;;;0.32;0.30;;;;;;;9.35;100.00;98850.91;6048862;23;20011;-96
2023/04/13 11:16:11;;;;;;;0.10;0.10;;;;;;;9.19;100.00;98829.03;6072011;23;20018;-96
2023/04/13 11:18:36;;;;;;;0.05;0.05;;;;;;;9.22;100.00;98822.59;6048782;23;20026;-96
2023/04/13 11:21:02;;;;;;;0.63;0.22;;;;;;;9.52;100.00;98864.50;6049246;23;20149;-95
2023/04/13 11:23:33;;;;;;;0.40;0.40;;;;;;;9.32;100.00;98815.09;6048530;23;20587;-96
2023/04/13 11:26:00;;;;;;;0.50;0.50;;;;;;;9.50;100.00;98842.03;6049235;23;20018;-96
2023/04/13 11:28:39;;;;;;;0.43;0.43;;;;;;;9.60;100.00;98852.66;6026227;23;20471;-96
2023/04/13 11:31:06;;;;;;;0.63;0.60;;;;;;;9.52;100.00;98836.81;6070177;23;20045;-96
2023/04/13 11:33:33;;;;;;;0.50;0.50;;;;;;;9.71;100.00;98858.53;6070358;23;20075;-95
2023/04/13 11:35:59;;;;;;;0.65;0.65;;;;;;;9.50;100.00;98839.28;6045071;23;20029;-94
2023/04/13 11:38:28;;;;;;;0.45;0.45;;;;;;;9.35;100.00;98830.78;6044314;23;20088;-95
2023/04/13 11:41:05;;;;;;;0.20;0.20;;;;;;;9.59;100.00;98864.19;6043752;23;20537;-95
2023/04/13 11:43:32;;;;;;;3.72;1.98;;;;;;;9.54;100.00;98859.28;6069423;23;20022;-95
2023/04/13 11:45:58;;;;;;;0.55;0.55;;;;;;;9.54;100.00;98856.50;6046491;23;20554;-96
2023/04/13 11:48:23;;;;;;;0.20;0.20;;;;;;;9.62;100.00;98855.00;6049768;23;20021;-96
2023/04/13 11:50:49;;;;;;;1.38;1.20;;;;;;;9.40;100.00;98837.72;6068795;23;20074;-96
2023/04/13 11:53:15;;;;;;;0.20;0.20;;;;;;;9.16;100.00;98807.84;6045371;23;20440;-96
2023/04/13 11:55:41;;;;;;;0.20;0.15;;;;;;;9.29;100.00;98833.38;6068873;23;20011;-96
2023/04/13 11:58:17;;;;;;;0.43;0.43;;;;;;;9.25;100.00;98834.75;6045258;23;20494;-96
2023/04/13 12:00:43;;;;;;;0.40;0.40;;;;;;;9.38;100.00;98836.16;6067855;23;20447;-96
2023/04/13 12:03:14;;;;;;;0.00;0.00;;;;;;;9.48;100.00;98863.88;6044449;23;20017;-96
2023/04/13 12:05:41;;;;;;;0.20;0.20;;;;;;;9.41;100.00;98861.41;6043568;23;20586;-96
2023/04/13 12:08:07;;;;;;;0.32;0.32;;;;;;;9.22;100.00;98835.69;6044933;23;20022;-95
2023/04/13 12:10:34;;;;;;;0.82;0.82;;;;;;;9.30;100.00;98845.97;6045733;23;20027;-96
2023/04/13 12:13:02;;;;;;;0.20;0.20;;;;;;;9.22;100.00;98844.72;6067658;23;20447;-96
2023/04/13 12:15:31;;;;;;;0.45;0.45;;;;;;;8.86;100.00;98792.03;6053939;23;20475;-96
2023/04/13 12:17:58;;;;;;;0.03;0.03;;;;;;;9.05;100.00;98801.97;6042797;23;20053;-96
2023/04/13 12:20:24;;;;;;;0.20;0.20;;;;;;;8.95;100.00;98780.25;6041746;23;20025;-96
2023/04/13 12:22:51;;;;;;;0.00;0.00;;;;;;;9.29;100.00;98816.00;6043220;23;20119;-96
2023/04/13 12:25:17;;;;;;;0.00;0.00;;;;;;;9.30;100.00;98823.84;6042511;23;20018;-94
2023/04/13 12:27:43;;;;;;;0.00;0.00;;;;;;;8.99;100.00;98791.94;6065059;23;20014;-95
2023/04/13 12:30:12;;;;;;;0.00;0.00;;;;;;;9.20;100.00;98827.81;6040551;23;20158;-94
2023/04/13 12:32:40;;;;;;;0.00;0.00;;;;;;;9.14;100.00;98826.88;6018163;23;20023;-94
2023/04/13 12:35:07;;;;;;;0.10;0.10;;;;;;;9.23;100.00;98835.19;6041589;23;20013;-96
2023/04/13 12:37:33;;;;;;;0.08;0.08;;;;;;;9.16;100.00;98835.50;6018874;23;20026;-96
2023/04/13 12:39:59;;;;;;;0.20;0.13;;;;;;;9.00;100.00;98827.44;6041933;23;20312;-96
2023/04/13 12:42:24;;;;;;;0.10;0.10;;;;;;;8.82;100.00;98797.72;6066027;23;20053;-94
2023/04/13 12:44:50;;;;;;;0.00;0.00;;;;;;;8.80;100.00;98791.88;6090284;23;20511;-95
2023/04/13 12:47:15;;;;;;;0.00;0.00;;;;;;;9.09;100.00;98824.72;6017611;23;20422;-96
2023/04/13 12:49:41;;;;;;;0.00;0.00;;;;;;;9.17;100.00;98828.75;6041425;23;20010;-95
2023/04/13 12:52:06;;;;;;;0.00;0.00;;;;;;;8.89;100.00;98786.41;6017334;23;20064;-94
2023/04/13 12:54:32;;;;;;;0.47;0.43;;;;;;;9.11;100.00;98807.66;6066611;23;20332;-94
2023/04/13 12:56:58;;;;;;;0.30;0.20;;;;;;;9.06;100.00;98802.75;6090037;23;20014;-93
2023/04/13 12:59:24;;;;;;;0.10;0.10;;;;;;;9.19;100.00;98817.97;6064530;23;20022;-94
2023/04/13 13:01:49;;;;;;;2.35;0.22;;;;;;;8.94;100.00;98773.19;6041298;23;20018;-94
2023/04/13 13:04:15;;;;;;;0.90;0.90;;;;;;;9.20;100.00;98808.47;6041392;23;20057;-95
2023/04/13 13:06:41;;;;;;;0.50;0.50;;;;;;;9.26;100.00;98806.63;6066791;23;20506;-95
2023/04/13 13:09:06;;;;;;;0.10;0.10;;;;;;;9.24;100.00;98806.31;6018815;23;20018;-95
2023/04/13 13:11:32;;;;;;;0.17;0.17;;;;;;;9.17;100.00;98803.06;6091175;23;20018;-96
2023/04/13 13:13:57;;;;;;;2.20;1.17;;;;;;;9.17;100.00;98792.78;6043960;23;20104;-95
2023/04/13 13:16:23;;;;;;;0.73;0.73;;;;;;;9.24;100.00;98809.09;6088543;23;20473;-95
2023/04/13 13:18:49;;;;;;;0.00;0.00;;;;;;;9.13;100.00;98791.38;6071098;23;20472;-95
2023/04/13 13:21:15;;;;;;;1.20;1.10;;;;;;;9.09;100.00;98774.94;6071710;23;20458;-96
2023/04/13 13:23:41;;;;;;;1.75;1.20;;;;;;;8.97;100.00;98752.91;6096485;23;20032;-95
2023/04/13 13:26:07;;;;;;;0.73;0.40;;;;;;;9.23;100.00;98779.88;6071440;23;20450;-96
2023/04/13 13:28:32;;;;;;;0.55;0.38;;;;;;;9.00;100.00;98750.00;6071793;23;20013;-95
2023/04/13 13:30:57;;;;;;;0.13;0.13;;;;;;;9.15;100.00;98767.56;6070099;23;20022;-95
2023/04/13 13:33:23;;;;;;;0.10;0.10;;;;;;;9.27;100.00;98786.03;6096212;23;20021;-95
2023/04/13 13:35:49;;;;;;;0.00;0.00;;;;;;;9.22;100.00;98792.16;6071753;23;20049;-95
2023/04/13 13:38:14;;;;;;;0.00;0.00;;;;;;;8.98;100.00;98755.22;6047735;23;20029;-96
2023/04/13 13:40:40;;;;;;;0.28;0.25;;;;;;;9.12;100.00;98792.59;6071562;23;20022;-94
2023/04/13 13:43:06;;;;;;;0.13;0.13;;;;;;;8.98;100.00;98785.63;6095524;23;20447;-95
2023/04/13 13:45:32;;;;;;;0.73;0.73;;;;;;;9.02;100.00;98789.03;6069739;23;20026;-95
2023/04/13 13:48:01;;;;;;;1.30;1.20;;;;;;;8.83;100.00;98773.59;6095229;23;20057;-94
2023/04/13 13:50:44;;;;;;;0.45;0.45;;;;;;;8.87;100.00;98757.63;6096635;23;20443;-94
2023/04/13 13:53:10;;;;;;;3.92;0.90;;;;;;;8.86;100.00;98792.03;6046417;23;20029;-93
2023/04/13 13:55:40;;;;;;;0.10;0.10;;;;;;;8.92;100.00;98809.59;6071166;23;20034;-93
2023/04/13 13:58:06;;;;;;;0.10;0.10;;;;;;;8.90;100.00;98806.50;6070476;23;20086;-92
2023/04/13 14:00:31;;;;;;;0.68;0.65;;;;;;;8.72;100.00;98784.31;6045313;23;20014;-92
2023/04/13 14:02:57;;;;;;;0.00;0.00;;;;;;;8.77;100.00;98786.50;6069967;23;20112;-93
2023/04/13 14:05:23;;;;;;;0.00;0.00;;;;;;;8.59;100.00;98767.06;6093795;23;20435;-92
2023/04/13 14:07:48;;;;;;;0.57;0.40;;;;;;;8.62;100.00;98786.25;6095252;23;20025;-93
2023/04/13 14:10:14;;;;;;;0.47;0.47;;;;;;;8.51;100.00;98771.31;6070371;23;20448;-93
2023/04/13 14:12:44;;;;;;;0.10;0.10;;;;;;;8.63;100.00;98792.56;6094312;23;20060;-93
2023/04/13 14:15:14;;;;;;;0.40;0.40;;;;;;;8.65;100.00;98790.13;6118345;23;20138;-93
2023/04/13 14:17:40;;;;;;;0.20;0.20;;;;;;;8.64;100.00;98777.53;6071437;23;20018;-93
2023/04/13 14:20:09;;;;;;;0.00;0.00;;;;;;;8.57;100.00;98778.59;6093272;23;20354;-93
2023/04/13 14:22:35;;;;;;;0.35;0.35;;;;;;;8.60;100.00;98776.91;6118508;23;20109;-93
2023/04/13 14:25:01;;;;;;;0.00;0.00;;;;;;;8.56;100.00;98765.22;6119867;23;20438;-93
2023/04/13 14:27:26;;;;;;;0.10;0.10;;;;;;;8.51;100.00;98757.50;6094488;23;20010;-94
2023/04/13 14:29:52;;;;;;;1.45;0.20;;;;;;;8.35;100.00;98728.09;6045873;23;20104;-93
2023/04/13 14:32:18;;;;;;;0.00;0.00;;;;;;;8.56;100.00;98749.41;6069723;23;20446;-93
2023/04/13 14:34:44;;;;;;;0.00;0.00;;;;;;;8.45;100.00;98737.22;6116981;23;20417;-93
2023/04/13 14:37:11;;;;;;;0.00;0.00;;;;;;;8.38;100.00;98735.50;6117836;23;20018;-93
2023/04/13 14:39:38;;;;;;;0.52;0.38;;;;;;;8.47;100.00;98741.06;6092983;23;20021;-93
2023/04/13 14:42:04;;;;;;;0.00;0.00;;;;;;;8.65;100.00;98757.75;6091953;23;20080;-93
2023/04/13 14:44:30;;;;;;;0.20;0.20;;;;;;;8.49;100.00;98724.81;6090409;23;20023;-93
2023/04/13 14:46:56;;;;;;;0.00;0.00;;;;;;;8.65;100.00;98759.72;6092429;23;20025;-93
2023/04/13 14:49:21;;;;;;;0.17;0.17;;;;;;;8.60;100.00;98744.50;6091824;23;20014;-92
2023/04/13 14:51:47;;;;;;;0.90;0.75;;;;;;;8.66;100.00;98752.94;6068818;23;20451;-93
2023/04/13 14:54:12;;;;;;;0.30;0.30;;;;;;;8.67;100.00;98744.22;6069317;23;20745;-91
2023/04/13 14:56:38;;;;;;;0.00;0.00;;;;;;;8.58;100.00;98718.53;6118947;23;20029;-91
2023/04/13 14:59:03;;;;;;;0.00;0.00;;;;;;;8.72;100.00;98731.78;6092295;23;20018;-92
2023/04/13 15:01:29;;;;;;;0.17;0.17;;;;;;;8.76;100.00;98749.00;6092806;23;20025;-93
2023/04/13 15:03:54;;;;;;;0.00;0.00;;;;;;;8.69;100.00;98727.19;6069827;23;20034;-93
2023/04/13 15:06:20;;;;;;;0.85;0.73;;;;;;;8.79;100.00;98739.78;6119530;23;20025;-92
2023/04/13 15:08:46;;;;;;;0.00;0.00;;;;;;;8.64;100.00;98720.25;6094124;23;20140;-93
2023/04/13 15:11:11;;;;;;;0.80;0.75;;;;;;;8.82;100.00;98750.72;6093380;23;20017;-93
2023/04/13 15:13:37;;;;;;;0.40;0.40;;;;;;;8.73;100.00;98744.41;6093454;23;20351;-93
2023/04/13 15:16:06;;;;;;;0.00;0.00;;;;;;;8.81;100.00;98770.53;6093423;23;20065;-94
2023/04/13 15:18:32;;;;;;;0.00;0.00;;;;;;;8.74;100.00;98756.97;6069887;23;20021;-93
2023/04/13 15:21:03;;;;;;;0.10;0.10;;;;;;;8.65;100.00;98752.22;6069020;23;20037;-92
2023/04/13 15:23:30;;;;;;;0.10;0.10;;;;;;;8.59;100.00;98731.13;6094197;23;20033;-92
2023/04/13 15:25:56;;;;;;;0.20;0.20;;;;;;;8.71;100.00;98749.59;6093998;23;20014;-93
2023/04/13 15:28:22;;;;;;;0.28;0.25;;;;;;;8.68;100.00;98722.88;6045223;23;20018;-93
2023/04/13 15:30:47;;;;;;;0.00;0.00;;;;;;;8.75;100.00;98717.06;6070245;23;20009;-93
2023/04/13 15:33:13;;;;;;;0.00;0.00;;;;;;;8.69;100.00;98702.31;6093342;23;20045;-93
2023/04/13 15:35:38;;;;;;;0.00;0.00;;;;;;;8.68;100.00;98686.94;6070086;23;20450;-92
2023/04/13 15:38:04;;;;;;;0.00;0.00;;;;;;;8.62;100.00;98688.75;6069409;23;20018;-93
2023/04/13 15:40:33;;;;;;;0.22;0.22;;;;;;;8.69;100.00;98703.06;6093157;23;20022;-92
2023/04/13 15:42:58;;;;;;;0.13;0.13;;;;;;;8.52;100.00;98684.44;6093124;23;20010;-92
2023/04/13 15:45:24;;;;;;;0.00;0.00;;;;;;;8.47;100.00;98694.09;6068749;23;20044;-93
2023/04/13 15:47:50;;;;;;;0.10;0.10;;;;;;;8.48;100.00;98714.19;6119894;23;20355;-92
2023/04/13 15:50:17;;;;;;;0.17;0.17;;;;;;;8.43;100.00;98721.88;6067880;23;20074;-92
2023/04/13 15:52:43;;;;;;;0.38;0.30;;;;;;;8.51;100.00;98735.41;6093618;23;20096;-93
2023/04/13 15:55:08;;;;;;;0.00;0.00;;;;;;;8.45;100.00;98732.47;6069981;23;20045;-93
2023/04/13 15:57:34;;;;;;;0.15;0.15;;;;;;;8.29;100.00;98703.06;6070652;23;20011;-93
2023/04/13 16:00:01;;;;;;;1.38;0.45;;;;;;;8.44;100.00;98730.94;6069505;23;20071;-93
2023/04/13 16:02:26;;;;;;;0.03;0.03;;;;;;;8.38;100.00;98722.44;6096348;23;20415;-93
2023/04/13 16:04:52;;;;;;;0.10;0.10;;;;;;;8.40;100.00;98728.31;6095485;23;20022;-94
2023/04/13 16:07:24;;;;;;;0.15;0.15;;;;;;;8.45;100.00;98721.41;6095540;23;20045;-92
2023/04/13 16:09:55;;;;;;;0.00;0.00;;;;;;;8.42;100.00;98717.56;6097145;23;20043;-93
2023/04/13 16:12:30;;;;;;;0.28;0.28;;;;;;;8.38;100.00;98710.63;6072216;23;20517;-93
2023/04/13 16:14:58;;;;;;;0.10;0.10;;;;;;;8.33;100.00;98709.22;6069884;23;20021;-90
2023/04/13 16:17:30;;;;;;;0.75;0.43;;;;;;;8.27;100.00;98686.16;6095212;23;20513;-92
2023/04/13 16:19:57;;;;;;;0.17;0.17;;;;;;;8.27;100.00;98722.06;6045462;23;20419;-93
2023/04/13 16:22:23;;;;;;;0.10;0.10;;;;;;;8.10;100.00;98700.63;6047105;23;20016;-93
2023/04/13 16:24:49;;;;;;;0.00;0.00;;;;;;;8.03;100.00;98692.63;6094786;23;20014;-93
2023/04/13 16:27:14;;;;;;;0.08;0.08;;;;;;;8.18;100.00;98722.00;6071206;23;20488;-93
2023/04/13 16:29:44;;;;;;;0.20;0.20;;;;;;;8.08;100.00;98720.44;6096739;23;20014;-91
2023/04/13 16:32:09;;;;;;;0.30;0.30;;;;;;;8.11;100.00;98718.75;6048223;23;20033;-91
2023/04/13 16:34:35;;;;;;;0.00;0.00;;;;;;;7.96;100.00;98713.00;6096136;23;20014;-93
2023/04/13 16:37:03;;;;;;;0.30;0.30;;;;;;;7.84;100.00;98705.56;6071867;23;20506;-92
2023/04/13 16:39:31;;;;;;;0.05;0.05;;;;;;;8.05;100.00;98740.66;6072821;23;20026;-92
2023/04/13 16:41:57;;;;;;;0.00;0.00;;;;;;;8.05;100.00;98742.66;6072160;23;20485;-92
2023/04/13 16:44:25;;;;;;;0.08;0.08;;;;;;;7.92;100.00;98723.41;6096155;23;20037;-92
2023/04/13 16:46:51;;;;;;;0.40;0.40;;;;;;;7.80;100.00;98711.22;6096167;23;20438;-91
2023/04/13 16:49:16;;;;;;;0.20;0.20;;;;;;;7.89;100.00;98718.75;6096019;23;20462;-91
2023/04/13 16:51:42;;;;;;;0.00;0.00;;;;;;;7.79;100.00;98703.38;6072652;23;20013;-91
2023/04/13 16:54:10;;;;;;;0.00;0.00;;;;;;;7.89;100.00;98727.03;6096740;23;20018;-93
2023/04/13 16:56:36;;;;;;;0.20;0.20;;;;;;;7.97;100.00;98742.13;6096728;23;20418;-92
2023/04/13 16:59:02;;;;;;;0.08;0.08;;;;;;;7.81;100.00;98711.97;6122176;23;20050;-92
2023/04/13 17:01:29;;;;;;;0.20;0.20;;;;;;;7.86;100.00;98716.91;6095446;23;20074;-91
2023/04/13 17:03:55;;;;;;;0.10;0.10;;;;;;;7.89;100.00;98736.09;6072172;23;20014;-92
2023/04/13 17:06:20;;;;;;;0.85;0.60;;;;;;;7.63;100.00;98706.34;6096231;23;20078;-92
2023/04/13 17:08:46;;;;;;;0.50;0.50;;;;;;;7.91;100.00;98739.19;6093320;23;20565;-92
2023/04/13 17:11:12;;;;;;;0.50;0.50;;;;;;;7.86;100.00;98719.66;6070080;23;20024;-92
2023/04/13 17:13:37;;;;;;;0.30;0.30;;;;;;;7.83;100.00;98718.59;6094434;23;20030;-92
2023/04/13 17:16:03;;;;;;;0.95;0.75;;;;;;;7.85;100.00;98718.13;6119414;23;20025;-91
2023/04/13 17:18:28;;;;;;;0.20;0.20;;;;;;;7.73;100.00;98691.34;6094784;23;20439;-91
2023/04/13 17:20:55;;;;;;;0.00;0.00;;;;;;;7.79;100.00;98703.38;6093451;23;20105;-91
2023/04/13 17:23:22;;;;;;;0.20;0.20;;;;;;;7.86;100.00;98703.09;6093293;23;20450;-91
2023/04/13 17:25:50;;;;;;;0.52;0.52;;;;;;;7.85;100.00;98712.59;6046178;23;20014;-92
2023/04/13 17:28:16;;;;;;;0.20;0.20;;;;;;;7.81;100.00;98709.97;6094505;23;20018;-92
2023/04/13 17:30:43;;;;;;;0.10;0.10;;;;;;;7.70;100.00;98695.03;6095320;23;20125;-93
2023/04/13 17:33:09;;;;;;;1.10;1.00;;;;;;;7.74;100.00;98701.19;6121915;23;20072;-91
2023/04/13 17:35:35;;;;;;;0.38;0.38;;;;;;;7.75;100.00;98698.00;6071481;23;20026;-92
2023/04/13 17:38:01;;;;;;;0.10;0.10;;;;;;;7.83;100.00;98709.53;6072034;23;20071;-93
2023/04/13 17:40:26;;;;;;;0.00;0.00;;;;;;;7.64;100.00;98674.75;6095368;23;20375;-92
2023/04/13 17:42:52;;;;;;;0.40;0.40;;;;;;;7.72;100.00;98682.34;6095372;23;20025;-92
2023/04/13 17:45:18;;;;;;;0.40;0.35;;;;;;;7.82;100.00;98697.72;6118752;23;20013;-92
2023/04/13 17:47:45;;;;;;;0.20;0.20;;;;;;;7.78;100.00;98693.53;6093934;23;20026;-92
2023/04/13 17:50:11;;;;;;;0.65;0.65;;;;;;;7.61;100.00;98670.91;6092637;23;20021;-92
2023/04/13 17:52:37;;;;;;;0.10;0.10;;;;;;;7.78;100.00;98690.78;6094073;23;20022;-91
2023/04/13 17:55:02;;;;;;;0.05;0.05;;;;;;;7.79;100.00;98678.53;6069333;23;20014;-92
2023/04/13 17:57:28;;;;;;;0.00;0.00;;;;;;;7.73;100.00;98663.75;6070407;23;20025;-91
2023/04/13 17:59:54;;;;;;;0.40;0.40;;;;;;;7.71;100.00;98652.41;6093275;23;20498;-91
2023/04/13 18:02:20;;;;;;;0.35;0.30;;;;;;;7.74;100.00;98657.03;6069044;23;20018;-91
2023/04/13 18:04:47;;;;;;;0.03;0.03;;;;;;;7.63;100.00;98631.81;6092771;23;20035;-90
2023/04/13 18:07:13;;;;;;;0.40;0.40;;;;;;;7.75;100.00;98642.00;6091605;23;20696;-90
2023/04/13 18:09:40;;;;;;;0.10;0.10;;;;;;;7.72;100.00;98638.19;6118483;23;20470;-91
2023/04/13 18:12:06;;;;;;;0.03;0.03;;;;;;;7.68;100.00;98632.00;6092965;23;20072;-92
2023/04/13 18:14:32;;;;;;;0.10;0.10;;;;;;;7.64;100.00;98631.38;6092673;23;20113;-91
2023/04/13 18:16:58;;;;;;;0.43;0.43;;;;;;;7.67;100.00;98636.00;6092183;23;20109;-92
2023/04/13 18:19:26;;;;;;;0.90;0.57;;;;;;;7.63;100.00;98620.78;6091507;23;20025;-91
2023/04/13 18:21:52;;;;;;;0.10;0.10;;;;;;;7.61;100.00;98620.44;6070055;23;20367;-91
2023/04/13 18:24:17;;;;;;;0.32;0.32;;;;;;;7.58;100.00;98638.69;6068617;23;20017;-92
2023/04/13 18:26:44;;;;;;;0.30;0.30;;;;;;;7.48;100.00;98621.28;6093010;23;20026;-91
2023/04/13 18:29:10;;;;;;;0.40;0.40;;;;;;;7.46;100.00;98623.75;6092804;23;20044;-92
2023/04/13 18:31:35;;;;;;;1.10;0.65;;;;;;;7.53;100.00;98633.75;6092122;23;20045;-92
2023/04/13 18:34:05;;;;;;;0.30;0.30;;;;;;;7.46;100.00;98622.97;6068427;23;20001;-91
2023/04/13 18:36:32;;;;;;;0.00;0.00;;;;;;;7.47;100.00;98625.28;6117182;23;20101;-90
2023/04/13 18:38:59;;;;;;;0.40;0.40;;;;;;;7.43;100.00;98626.63;6063182;23;20018;-91
2023/04/13 18:41:24;;;;;;;0.52;0.30;;;;;;;7.39;100.00;98631.50;6033198;23;20034;-91
2023/04/13 18:43:50;;;;;;;0.25;0.25;;;;;;;7.20;100.00;98619.56;6093240;23;20085;-91
2023/04/13 18:46:16;;;;;;;0.10;0.10;;;;;;;7.40;100.00;98650.34;6066150;23;20410;-90